createdAt,value
2023-02-05T00:00:46.916Z,7.40
2023-02-05T00:04:48.886Z,6.68
2023-02-05T00:08:50.601Z,7.80
2023-02-05T00:12:52.438Z,7.15
2023-02-05T00:16:54.378Z,7.13
2023-02-05T00:20:56.091Z,8.13
2023-02-05T00:24:57.531Z,7.00
2023-02-05T00:28:59.193Z,6.72
2023-02-05T00:33:01.938Z,6.40
2023-02-05T00:37:03.821Z,6.95
2023-02-05T00:41:06.261Z,7.20
2023-02-05T00:45:08.508Z,7.95
2023-02-05T00:49:09.909Z,7.30
2023-02-05T00:53:11.350Z,4.88
2023-02-05T00:57:13.076Z,5.40
2023-02-05T01:01:15.495Z,5.05
2023-02-05T01:05:17.076Z,6.18
2023-02-05T01:09:18.823Z,5.35
2023-02-05T01:13:20.590Z,6.60
2023-02-05T01:17:22.098Z,6.72
2023-02-05T01:21:25.203Z,5.32
2023-02-05T01:25:26.615Z,5.50
2023-02-05T01:29:29.392Z,6.30
2023-02-05T01:33:31.171Z,6.72
2023-02-05T01:37:32.607Z,5.10
2023-02-05T01:41:35.462Z,4.72
2023-02-05T01:45:55.417Z,4.80
2023-02-05T01:49:57.652Z,5.20
2023-02-05T01:53:59.614Z,5.03
2023-02-05T01:58:01.678Z,4.93
2023-02-05T02:02:08.189Z,5.32
2023-02-05T02:06:09.869Z,6.25
2023-02-05T02:10:14.821Z,4.80
2023-02-05T02:14:16.431Z,5.07
2023-02-05T02:18:28.287Z,8.57
2023-02-05T02:22:55.315Z,6.78
2023-02-05T02:27:11.624Z,6.78
2023-02-05T02:31:22.750Z,7.57
2023-02-05T02:35:47.896Z,7.75
2023-02-05T02:40:00.973Z,6.32
2023-02-05T02:44:09.799Z,6.53
2023-02-05T02:48:11.848Z,6.40
2023-02-05T02:52:16.203Z,6.75
2023-02-05T02:56:19.303Z,8.02
2023-02-05T03:00:26.344Z,6.90
2023-02-05T03:04:31.417Z,7.57
2023-02-05T03:08:39.157Z,8.13
2023-02-05T03:12:40.601Z,6.97
2023-02-05T03:16:42.125Z,7.53
2023-02-05T03:20:54.568Z,8.88
2023-02-05T03:24:56.300Z,8.73
2023-02-05T03:29:01.072Z,7.65
2023-02-05T03:33:05.513Z,9.82
2023-02-05T03:37:40.053Z,8.23
2023-02-05T03:41:59.593Z,8.52
2023-02-05T03:46:29.442Z,7.93
2023-02-05T03:50:41.376Z,8.90
2023-02-05T03:55:03.232Z,7.97
2023-02-05T03:59:05.723Z,7.97
2023-02-05T04:03:07.390Z,9.45
2023-02-05T04:07:09.562Z,8.23
2023-02-05T04:11:11.232Z,9.73
2023-02-05T04:15:12.989Z,10.43
2023-02-05T04:19:14.549Z,9.00
2023-02-05T04:23:15.997Z,10.38
2023-02-05T04:27:17.847Z,9.73
2023-02-05T04:31:19.788Z,10.07
2023-02-05T04:35:21.505Z,9.88
2023-02-05T04:39:22.930Z,9.43
2023-02-05T04:43:24.726Z,9.80
2023-02-05T04:47:26.200Z,10.15
2023-02-05T04:51:27.636Z,9.98
2023-02-05T04:55:30.151Z,10.82
2023-02-05T04:59:31.981Z,8.85
2023-02-05T05:03:33.763Z,8.50
2023-02-05T05:07:35.235Z,8.20
2023-02-05T05:11:36.658Z,8.52
2023-02-05T05:15:38.456Z,8.88
2023-02-05T05:19:40.024Z,8.18
2023-02-05T05:23:41.531Z,9.15
2023-02-05T05:27:44.374Z,7.57
2023-02-05T05:31:46.118Z,8.02
2023-02-05T05:35:48.085Z,9.23
2023-02-05T05:40:08.706Z,8.38
2023-02-05T05:44:10.795Z,6.95
2023-02-05T05:48:12.449Z,7.57
2023-02-05T05:52:15.563Z,7.32
2023-02-05T05:56:17.547Z,7.45
2023-02-05T06:00:19.300Z,7.75
2023-02-05T06:04:20.891Z,7.72
2023-02-05T06:08:22.480Z,8.27
2023-02-05T06:12:24.314Z,9.15
2023-02-05T06:16:26.265Z,7.95
2023-02-05T06:20:28.121Z,9.35
2023-02-05T06:24:31.046Z,8.63
2023-02-05T06:28:32.850Z,8.73
2023-02-05T06:32:34.451Z,8.25
2023-02-05T06:36:36.124Z,8.40
2023-02-05T06:40:37.973Z,7.45
2023-02-05T06:44:39.387Z,8.38
2023-02-05T06:48:41.197Z,8.18
2023-02-05T06:52:42.943Z,8.20
2023-02-05T06:56:44.368Z,9.30
2023-02-05T07:00:45.758Z,7.78
2023-02-05T07:04:47.185Z,8.05
2023-02-05T07:08:49.647Z,9.05
2023-02-05T07:12:51.167Z,8.43
2023-02-05T07:16:52.571Z,7.85
2023-02-05T07:20:54.339Z,7.60
2023-02-05T07:24:56.160Z,7.60
2023-02-05T07:28:57.962Z,8.73
2023-02-05T07:33:01.095Z,7.38
2023-02-05T07:37:02.700Z,7.15
2023-02-05T07:41:07.640Z,7.85
2023-02-05T07:45:10.532Z,7.88
2023-02-05T07:49:12.001Z,8.13
2023-02-05T07:53:13.465Z,8.40
2023-02-05T07:57:14.865Z,9.15
2023-02-05T08:01:16.476Z,7.47
2023-02-05T08:05:19.005Z,7.75
2023-02-05T08:09:20.779Z,7.63
2023-02-05T08:13:22.414Z,7.47
2023-02-05T08:17:24.320Z,7.35
2023-02-05T08:21:25.859Z,6.95
2023-02-05T08:25:27.680Z,8.10
2023-02-05T08:29:29.192Z,7.78
2023-02-05T08:33:30.625Z,7.55
2023-02-05T08:37:32.662Z,8.93
2023-02-05T08:41:34.124Z,7.05
2023-02-05T08:45:36.413Z,8.20
2023-02-05T08:49:38.392Z,8.55
2023-02-05T08:53:40.942Z,8.15
2023-02-05T08:57:42.464Z,7.72
2023-02-05T09:01:44.377Z,9.55
2023-02-05T09:05:46.136Z,6.93
2023-02-05T09:09:49.322Z,7.43
2023-02-05T09:13:51.170Z,6.35
2023-02-05T09:17:52.890Z,6.60
2023-02-05T09:21:54.411Z,7.07
2023-02-05T09:25:58.836Z,7.75
2023-02-05T09:30:00.352Z,7.82
2023-02-05T09:34:03.652Z,7.43
2023-02-05T09:38:05.713Z,7.38
2023-02-05T09:42:22.380Z,7.68
2023-02-05T09:46:28.836Z,8.03
2023-02-05T09:50:30.548Z,11.82
2023-02-05T09:54:53.884Z,7.40
2023-02-05T09:58:56.722Z,8.02
2023-02-05T10:03:02.965Z,8.30
2023-02-05T10:07:26.630Z,7.80
2023-02-05T10:11:46.437Z,9.30
2023-02-05T10:15:47.903Z,8.65
2023-02-05T10:20:13.378Z,7.68
2023-02-05T10:24:40.954Z,9.10
2023-02-05T10:28:57.791Z,7.30
2023-02-05T10:33:01.077Z,6.95
2023-02-05T10:37:05.121Z,7.28
2023-02-05T10:41:32.608Z,7.97
2023-02-05T10:45:34.871Z,8.60
2023-02-05T10:49:56.027Z,8.35
2023-02-05T10:54:00.009Z,9.30
2023-02-05T10:58:17.469Z,8.60
2023-02-05T11:06:22.045Z,8.75
2023-02-05T11:10:31.268Z,8.32
2023-02-05T11:36:39.711Z,8.90
2023-02-05T11:40:42.648Z,8.23
2023-02-05T11:44:53.887Z,7.68
2023-02-05T11:49:00.943Z,7.57
2023-02-05T11:53:09.420Z,8.00
2023-02-05T11:57:14.696Z,9.05
2023-02-05T12:01:29.271Z,8.35
2023-02-05T12:05:38.002Z,7.82
2023-02-05T12:09:44.265Z,7.30
2023-02-05T12:13:48.916Z,7.65
2023-02-05T12:18:10.728Z,8.40
2023-02-05T12:22:26.613Z,8.02
2023-02-05T12:26:36.658Z,9.55
2023-02-05T12:30:44.534Z,8.60
2023-02-05T12:34:58.906Z,7.75
2023-02-05T12:39:22.284Z,8.52
2023-02-05T12:43:40.867Z,7.57
2023-02-05T12:48:20.619Z,7.57
2023-02-05T12:52:48.061Z,6.22
2023-02-05T13:00:59.979Z,7.72
2023-02-05T13:05:37.516Z,8.60
2023-02-05T13:09:44.221Z,8.70
2023-02-05T13:13:55.994Z,8.87
2023-02-05T13:18:01.831Z,6.10
2023-02-05T13:22:31.266Z,5.75
2023-02-05T13:26:59.480Z,5.20
2023-02-05T13:31:03.547Z,4.28
2023-02-05T13:35:12.351Z,5.13
2023-02-05T13:39:34.223Z,4.82
2023-02-05T13:44:13.617Z,5.35
2023-02-05T13:49:16.970Z,6.78
2023-02-05T13:53:27.545Z,5.35
2023-02-05T13:57:56.704Z,5.03
2023-02-05T14:02:00.438Z,5.50
2023-02-05T14:06:17.081Z,4.88
2023-02-05T14:10:31.935Z,5.93
2023-02-05T14:14:42.218Z,4.65
2023-02-05T14:18:49.354Z,4.20
2023-02-05T14:22:55.705Z,9.32
2023-02-05T14:27:00.802Z,5.38
2023-02-05T14:31:07.816Z,5.28
2023-02-05T14:35:38.669Z,5.18
2023-02-05T14:39:40.443Z,5.18
2023-02-05T14:43:46.580Z,9.63
2023-02-05T14:47:48.189Z,5.07
2023-02-05T14:51:53.251Z,5.55
2023-02-05T14:55:56.783Z,8.45
2023-02-05T15:00:00.921Z,6.60
2023-02-05T15:04:04.172Z,5.55
2023-02-05T15:08:11.264Z,5.75
2023-02-05T15:12:41.881Z,7.28
2023-02-05T15:16:43.361Z,6.30
2023-02-05T15:20:47.647Z,6.80
2023-02-05T15:24:49.691Z,5.97
2023-02-05T15:28:57.977Z,6.07
2023-02-05T15:33:04.117Z,5.50
2023-02-05T15:37:16.244Z,5.07
2023-02-05T15:41:20.417Z,5.22
2023-02-05T15:45:40.335Z,5.45
2023-02-05T15:49:46.481Z,6.05
2023-02-05T15:53:49.833Z,6.18
2023-02-05T15:58:14.213Z,7.15
2023-02-05T16:02:33.620Z,6.97
2023-02-05T16:06:37.166Z,7.70
2023-02-05T16:10:39.041Z,8.15
2023-02-05T16:14:40.799Z,7.30
2023-02-05T16:18:56.976Z,7.43
2023-02-05T16:23:02.789Z,7.55
2023-02-05T16:27:18.095Z,8.60
2023-02-05T16:31:22.688Z,7.82
2023-02-05T16:35:30.117Z,8.10
2023-02-05T16:39:45.477Z,6.95
2023-02-05T16:43:47.130Z,6.63
2023-02-05T16:48:37.911Z,7.70
2023-02-05T16:52:40.729Z,9.45
2023-02-05T16:56:56.190Z,9.55
2023-02-05T17:01:00.007Z,11.63
2023-02-05T17:05:03.024Z,11.05
2023-02-05T17:09:06.153Z,9.60
2023-02-05T17:13:36.437Z,9.20
2023-02-05T17:17:53.641Z,9.60
2023-02-05T17:22:18.305Z,11.20
2023-02-05T17:26:20.684Z,9.45
2023-02-05T17:30:22.291Z,10.95
2023-02-05T17:34:23.756Z,14.18
2023-02-05T17:38:25.495Z,12.90
2023-02-05T17:42:27.172Z,11.57
2023-02-05T17:46:28.937Z,8.45
2023-02-05T17:50:32.023Z,10.85
2023-02-05T17:54:34.231Z,15.02
2023-02-05T17:58:36.379Z,11.20
2023-02-05T18:02:38.415Z,14.13
2023-02-05T18:06:42.404Z,12.55
2023-02-05T18:10:44.020Z,16.02
2023-02-05T18:14:45.532Z,16.60
2023-02-05T18:18:47.729Z,16.40
2023-02-05T18:22:50.529Z,17.55
2023-02-05T18:26:53.788Z,18.70
2023-02-05T18:31:04.721Z,19.20
2023-02-05T18:35:06.768Z,18.45
2023-02-05T18:39:12.299Z,19.73
2023-02-05T18:43:13.880Z,20.75
2023-02-05T18:47:17.656Z,19.35
2023-02-05T18:51:24.053Z,18.70
2023-02-05T18:55:35.186Z,19.05
2023-02-05T18:59:37.942Z,17.33
2023-02-05T19:03:41.512Z,10.70
2023-02-05T19:07:45.028Z,14.82
2023-02-05T19:11:46.574Z,13.23
2023-02-05T19:15:48.450Z,9.82
2023-02-05T19:19:52.077Z,8.55
2023-02-05T19:23:55.581Z,12.43
2023-02-05T19:27:57.147Z,17.10
2023-02-05T19:31:58.814Z,12.07
2023-02-05T19:36:01.431Z,10.98
2023-02-05T19:40:03.632Z,12.07
2023-02-05T19:44:07.761Z,12.20
2023-02-05T19:48:09.420Z,12.95
2023-02-05T19:52:11.044Z,14.55
2023-02-05T19:56:17.677Z,14.90
2023-02-05T20:00:21.639Z,14.03
2023-02-05T20:04:25.994Z,14.82
2023-02-05T20:08:29.868Z,15.15
2023-02-05T20:12:31.934Z,15.68
2023-02-05T20:16:34.135Z,16.88
2023-02-05T20:20:40.334Z,14.07
2023-02-05T20:24:41.911Z,15.13
2023-02-05T20:29:01.939Z,12.05
2023-02-05T20:33:03.621Z,14.77
2023-02-05T20:37:09.609Z,14.50
2023-02-05T20:41:17.505Z,12.55
2023-02-05T20:45:22.535Z,10.73
2023-02-05T20:49:24.515Z,9.30
2023-02-05T20:53:26.168Z,10.30
2023-02-05T20:57:27.672Z,11.93
2023-02-05T21:01:29.853Z,14.00
2023-02-05T21:05:31.973Z,16.23
2023-02-05T21:09:33.459Z,17.92
2023-02-05T21:13:35.926Z,13.65
2023-02-05T21:17:38.077Z,14.13
2023-02-05T21:21:43.068Z,11.85
2023-02-05T21:25:45.122Z,13.35
2023-02-05T21:29:46.987Z,15.60
2023-02-05T21:33:48.925Z,13.32
2023-02-05T21:37:50.420Z,15.20
2023-02-05T21:41:57.867Z,15.82
2023-02-05T21:50:06.205Z,15.73
2023-02-05T21:54:08.076Z,16.63
2023-02-05T21:58:09.541Z,17.40
2023-02-05T22:02:11.584Z,18.60
2023-02-05T22:06:13.430Z,17.10
2023-02-05T22:10:15.699Z,17.92
2023-02-05T22:14:17.471Z,16.20
2023-02-05T22:18:19.712Z,19.00
2023-02-05T22:22:21.459Z,17.48
2023-02-05T22:26:25.172Z,16.80
2023-02-05T22:30:27.024Z,18.83
2023-02-05T22:34:29.255Z,17.27
2023-02-05T22:38:31.984Z,20.73
2023-02-05T22:42:34.227Z,21.08
2023-02-05T22:46:39.092Z,23.45
2023-02-05T22:50:41.962Z,25.98
2023-02-05T22:54:43.602Z,25.48
2023-02-05T22:58:46.832Z,24.73
2023-02-05T23:02:49.577Z,24.67
2023-02-05T23:06:51.621Z,25.60
2023-02-05T23:10:53.576Z,27.50
2023-02-05T23:14:55.446Z,25.98
2023-02-05T23:19:00.789Z,25.17
2023-02-05T23:23:02.979Z,26.10
2023-02-05T23:27:05.930Z,26.02
2023-02-05T23:31:08.081Z,27.20
2023-02-05T23:35:09.605Z,28.10
2023-02-05T23:39:11.095Z,28.40
2023-02-05T23:43:12.839Z,25.67
2023-02-05T23:47:14.288Z,27.23
2023-02-05T23:51:15.721Z,30.02
2023-02-05T23:55:17.483Z,29.17
2023-02-05T23:59:19.583Z,28.85
